sensor_id;sensor_type;location;lat;lon;timestamp;P1;durP1;ratioP1;P2;durP2;ratioP2
34639;SDS011;22600;48.186;11.526;2022-11-15T00:01:39;5.90;;;4.18;;
34639;SDS011;22600;48.186;11.526;2022-11-15T00:04:05;5.68;;;3.75;;
34639;SDS011;22600;48.186;11.526;2022-11-15T00:06:31;6.75;;;3.92;;
34639;SDS011;22600;48.186;11.526;2022-11-15T00:08:57;5.43;;;3.70;;
34639;SDS011;22600;48.186;11.526;2022-11-15T00:11:24;5.50;;;3.47;;
34639;SDS011;22600;48.186;11.526;2022-11-15T00:13:50;5.25;;;3.53;;
34639;SDS011;22600;48.186;11.526;2022-11-15T00:16:16;5.30;;;3.70;;
34639;SDS011;22600;48.186;11.526;2022-11-15T00:18:42;5.07;;;3.40;;
34639;SDS011;22600;48.186;11.526;2022-11-15T00:21:09;7.00;;;3.72;;
34639;SDS011;22600;48.186;11.526;2022-11-15T00:23:36;4.93;;;3.53;;
34639;SDS011;22600;48.186;11.526;2022-11-15T00:26:02;5.60;;;3.90;;
34639;SDS011;22600;48.186;11.526;2022-11-15T00:28:28;5.28;;;3.72;;
34639;SDS011;22600;48.186;11.526;2022-11-15T00:30:59;6.35;;;3.75;;
34639;SDS011;22600;48.186;11.526;2022-11-15T00:33:29;4.80;;;3.50;;
34639;SDS011;22600;48.186;11.526;2022-11-15T00:36:01;5.93;;;3.58;;
34639;SDS011;22600;48.186;11.526;2022-11-15T00:38:37;4.95;;;3.78;;
34639;SDS011;22600;48.186;11.526;2022-11-15T00:41:04;5.25;;;3.63;;
34639;SDS011;22600;48.186;11.526;2022-11-15T00:43:31;7.75;;;3.53;;
34639;SDS011;22600;48.186;11.526;2022-11-15T00:45:57;4.70;;;3.60;;
34639;SDS011;22600;48.186;11.526;2022-11-15T00:48:22;5.05;;;3.53;;
34639;SDS011;22600;48.186;11.526;2022-11-15T00:50:48;5.30;;;3.50;;
34639;SDS011;22600;48.186;11.526;2022-11-15T00:53:14;5.68;;;3.70;;
34639;SDS011;22600;48.186;11.526;2022-11-15T00:55:40;6.20;;;3.90;;
34639;SDS011;22600;48.186;11.526;2022-11-15T00:58:06;4.80;;;3.13;;
34639;SDS011;22600;48.186;11.526;2022-11-15T01:00:31;4.70;;;3.42;;
34639;SDS011;22600;48.186;11.526;2022-11-15T01:02:57;5.72;;;3.60;;
34639;SDS011;22600;48.186;11.526;2022-11-15T01:05:23;4.25;;;3.40;;
34639;SDS011;22600;48.186;11.526;2022-11-15T01:07:52;6.07;;;3.72;;
34639;SDS011;22600;48.186;11.526;2022-11-15T01:10:18;5.50;;;3.77;;
34639;SDS011;22600;48.186;11.526;2022-11-15T01:12:44;4.97;;;3.42;;
34639;SDS011;22600;48.186;11.526;2022-11-15T01:15:10;4.18;;;3.20;;
34639;SDS011;22600;48.186;11.526;2022-11-15T01:17:35;4.90;;;3.60;;
34639;SDS011;22600;48.186;11.526;2022-11-15T01:20:01;5.13;;;3.63;;
34639;SDS011;22600;48.186;11.526;2022-11-15T01:22:27;5.13;;;3.70;;
34639;SDS011;22600;48.186;11.526;2022-11-15T01:24:53;5.13;;;3.60;;
34639;SDS011;22600;48.186;11.526;2022-11-15T01:27:18;5.10;;;3.38;;
34639;SDS011;22600;48.186;11.526;2022-11-15T01:29:44;4.88;;;3.30;;
34639;SDS011;22600;48.186;11.526;2022-11-15T01:32:09;5.10;;;3.58;;
34639;SDS011;22600;48.186;11.526;2022-11-15T01:34:35;4.80;;;3.22;;
34639;SDS011;22600;48.186;11.526;2022-11-15T01:37:01;4.68;;;3.30;;
34639;SDS011;22600;48.186;11.526;2022-11-15T01:39:26;5.53;;;3.38;;
34639;SDS011;22600;48.186;11.526;2022-11-15T01:41:52;5.10;;;3.60;;
34639;SDS011;22600;48.186;11.526;2022-11-15T01:46:56;4.97;;;3.35;;
34639;SDS011;22600;48.186;11.526;2022-11-15T01:49:23;5.55;;;3.50;;
34639;SDS011;22600;48.186;11.526;2022-11-15T01:51:50;5.60;;;3.63;;
34639;SDS011;22600;48.186;11.526;2022-11-15T01:54:17;4.72;;;3.20;;
34639;SDS011;22600;48.186;11.526;2022-11-15T01:56:46;4.75;;;3.15;;
34639;SDS011;22600;48.186;11.526;2022-11-15T01:59:17;5.07;;;3.38;;
34639;SDS011;22600;48.186;11.526;2022-11-15T02:01:43;5.07;;;3.35;;
34639;SDS011;22600;48.186;11.526;2022-11-15T02:06:35;5.53;;;3.58;;
34639;SDS011;22600;48.186;11.526;2022-11-15T02:09:01;4.75;;;3.42;;
34639;SDS011;22600;48.186;11.526;2022-11-15T02:11:27;4.25;;;3.22;;
34639;SDS011;22600;48.186;11.526;2022-11-15T02:13:53;4.78;;;3.22;;
34639;SDS011;22600;48.186;11.526;2022-11-15T02:21:56;4.78;;;3.25;;
34639;SDS011;22600;48.186;11.526;2022-11-15T02:33:10;5.85;;;3.53;;
34639;SDS011;22600;48.186;11.526;2022-11-15T02:38:29;4.80;;;3.33;;
34639;SDS011;22600;48.186;11.526;2022-11-15T02:46:44;4.90;;;3.33;;
34639;SDS011;22600;48.186;11.526;2022-11-15T02:49:39;4.60;;;3.47;;
34639;SDS011;22600;48.186;11.526;2022-11-15T02:52:06;5.13;;;3.10;;
34639;SDS011;22600;48.186;11.526;2022-11-15T02:54:33;4.38;;;3.17;;
34639;SDS011;22600;48.186;11.526;2022-11-15T02:57:00;5.45;;;3.42;;
34639;SDS011;22600;48.186;11.526;2022-11-15T02:59:43;4.70;;;3.50;;
34639;SDS011;22600;48.186;11.526;2022-11-15T03:10:06;4.35;;;3.10;;
34639;SDS011;22600;48.186;11.526;2022-11-15T03:12:54;4.78;;;2.88;;
34639;SDS011;22600;48.186;11.526;2022-11-15T03:15:32;4.13;;;2.88;;
34639;SDS011;22600;48.186;11.526;2022-11-15T03:18:15;5.03;;;3.20;;
34639;SDS011;22600;48.186;11.526;2022-11-15T03:20:46;4.85;;;3.05;;
34639;SDS011;22600;48.186;11.526;2022-11-15T03:23:13;4.20;;;3.25;;
34639;SDS011;22600;48.186;11.526;2022-11-15T03:25:43;4.80;;;3.10;;
34639;SDS011;22600;48.186;11.526;2022-11-15T03:28:13;4.70;;;2.90;;
34639;SDS011;22600;48.186;11.526;2022-11-15T03:30:46;4.22;;;3.10;;
34639;SDS011;22600;48.186;11.526;2022-11-15T03:33:14;5.13;;;3.00;;
34639;SDS011;22600;48.186;11.526;2022-11-15T03:35:42;4.43;;;3.00;;
34639;SDS011;22600;48.186;11.526;2022-11-15T03:38:17;4.53;;;3.30;;
34639;SDS011;22600;48.186;11.526;2022-11-15T03:41:00;4.88;;;3.30;;
34639;SDS011;22600;48.186;11.526;2022-11-15T03:43:36;4.35;;;3.00;;
34639;SDS011;22600;48.186;11.526;2022-11-15T03:46:14;4.10;;;3.13;;
34639;SDS011;22600;48.186;11.526;2022-11-15T03:48:52;4.28;;;2.90;;
34639;SDS011;22600;48.186;11.526;2022-11-15T03:51:21;4.68;;;3.20;;
34639;SDS011;22600;48.186;11.526;2022-11-15T03:53:47;4.15;;;3.08;;
34639;SDS011;22600;48.186;11.526;2022-11-15T03:56:13;4.85;;;3.60;;
34639;SDS011;22600;48.186;11.526;2022-11-15T03:58:38;4.80;;;3.40;;
34639;SDS011;22600;48.186;11.526;2022-11-15T04:01:04;5.22;;;3.33;;
34639;SDS011;22600;48.186;11.526;2022-11-15T04:03:29;4.18;;;3.17;;
34639;SDS011;22600;48.186;11.526;2022-11-15T04:05:55;4.53;;;3.15;;
34639;SDS011;22600;48.186;11.526;2022-11-15T04:08:20;4.20;;;3.08;;
34639;SDS011;22600;48.186;11.526;2022-11-15T04:10:48;4.18;;;3.00;;
34639;SDS011;22600;48.186;11.526;2022-11-15T04:13:14;3.83;;;2.97;;
34639;SDS011;22600;48.186;11.526;2022-11-15T04:15:40;3.75;;;2.75;;
34639;SDS011;22600;48.186;11.526;2022-11-15T04:18:05;4.47;;;2.92;;
34639;SDS011;22600;48.186;11.526;2022-11-15T04:20:31;3.58;;;2.80;;
34639;SDS011;22600;48.186;11.526;2022-11-15T04:23:17;4.25;;;3.10;;
34639;SDS011;22600;48.186;11.526;2022-11-15T04:26:12;4.53;;;2.80;;
34639;SDS011;22600;48.186;11.526;2022-11-15T04:28:43;4.25;;;2.92;;
34639;SDS011;22600;48.186;11.526;2022-11-15T04:31:27;4.05;;;2.80;;
34639;SDS011;22600;48.186;11.526;2022-11-15T04:33:53;4.07;;;2.92;;
34639;SDS011;22600;48.186;11.526;2022-11-15T04:36:19;4.10;;;2.83;;
34639;SDS011;22600;48.186;11.526;2022-11-15T04:39:04;4.45;;;3.42;;
34639;SDS011;22600;48.186;11.526;2022-11-15T04:41:30;4.72;;;2.95;;
34639;SDS011;22600;48.186;11.526;2022-11-15T04:43:55;4.10;;;3.03;;
34639;SDS011;22600;48.186;11.526;2022-11-15T04:46:21;3.50;;;2.55;;
34639;SDS011;22600;48.186;11.526;2022-11-15T04:48:48;4.10;;;2.70;;
34639;SDS011;22600;48.186;11.526;2022-11-15T04:51:14;4.13;;;3.15;;
34639;SDS011;22600;48.186;11.526;2022-11-15T04:53:40;3.40;;;2.67;;
34639;SDS011;22600;48.186;11.526;2022-11-15T04:56:05;4.22;;;3.00;;
34639;SDS011;22600;48.186;11.526;2022-11-15T04:58:31;3.70;;;2.70;;
34639;SDS011;22600;48.186;11.526;2022-11-15T05:00:57;3.33;;;2.65;;
34639;SDS011;22600;48.186;11.526;2022-11-15T05:03:22;4.35;;;2.90;;
34639;SDS011;22600;48.186;11.526;2022-11-15T05:06:06;3.63;;;2.78;;
34639;SDS011;22600;48.186;11.526;2022-11-15T05:08:32;4.28;;;3.05;;
34639;SDS011;22600;48.186;11.526;2022-11-15T05:10:58;3.47;;;2.80;;
34639;SDS011;22600;48.186;11.526;2022-11-15T05:13:23;4.32;;;3.03;;
34639;SDS011;22600;48.186;11.526;2022-11-15T05:15:49;3.88;;;2.90;;
34639;SDS011;22600;48.186;11.526;2022-11-15T05:18:15;4.65;;;2.92;;
34639;SDS011;22600;48.186;11.526;2022-11-15T05:20:40;3.55;;;2.70;;
34639;SDS011;22600;48.186;11.526;2022-11-15T05:23:06;4.18;;;2.80;;
34639;SDS011;22600;48.186;11.526;2022-11-15T05:25:32;4.38;;;2.90;;
34639;SDS011;22600;48.186;11.526;2022-11-15T05:27:57;3.80;;;2.90;;
34639;SDS011;22600;48.186;11.526;2022-11-15T05:30:23;4.05;;;2.92;;
34639;SDS011;22600;48.186;11.526;2022-11-15T05:32:48;3.25;;;2.60;;
34639;SDS011;22600;48.186;11.526;2022-11-15T05:35:18;4.00;;;2.83;;
34639;SDS011;22600;48.186;11.526;2022-11-15T05:37:53;3.10;;;2.60;;
34639;SDS011;22600;48.186;11.526;2022-11-15T05:40:18;3.63;;;2.80;;
34639;SDS011;22600;48.186;11.526;2022-11-15T05:42:44;4.35;;;2.70;;
34639;SDS011;22600;48.186;11.526;2022-11-15T05:45:10;4.60;;;2.90;;
34639;SDS011;22600;48.186;11.526;2022-11-15T05:47:36;4.80;;;3.00;;
34639;SDS011;22600;48.186;11.526;2022-11-15T05:50:03;3.65;;;2.90;;
34639;SDS011;22600;48.186;11.526;2022-11-15T05:52:30;5.15;;;3.15;;
34639;SDS011;22600;48.186;11.526;2022-11-15T05:54:58;3.33;;;2.45;;
34639;SDS011;22600;48.186;11.526;2022-11-15T05:57:24;3.67;;;2.85;;
34639;SDS011;22600;48.186;11.526;2022-11-15T05:59:50;4.20;;;3.00;;
34639;SDS011;22600;48.186;11.526;2022-11-15T06:02:16;4.07;;;2.90;;
34639;SDS011;22600;48.186;11.526;2022-11-15T06:04:42;4.32;;;3.00;;
34639;SDS011;22600;48.186;11.526;2022-11-15T06:07:07;3.28;;;2.58;;
34639;SDS011;22600;48.186;11.526;2022-11-15T06:09:33;4.00;;;2.85;;
34639;SDS011;22600;48.186;11.526;2022-11-15T06:11:58;3.88;;;2.90;;
34639;SDS011;22600;48.186;11.526;2022-11-15T06:14:24;3.88;;;2.78;;
34639;SDS011;22600;48.186;11.526;2022-11-15T06:16:49;8.00;;;4.65;;
34639;SDS011;22600;48.186;11.526;2022-11-15T06:19:15;19.08;;;5.40;;
34639;SDS011;22600;48.186;11.526;2022-11-15T06:21:41;38.72;;;8.98;;
34639;SDS011;22600;48.186;11.526;2022-11-15T06:24:07;40.15;;;9.07;;
34639;SDS011;22600;48.186;11.526;2022-11-15T06:26:32;116.93;;;51.53;;
34639;SDS011;22600;48.186;11.526;2022-11-15T06:28:58;30.85;;;9.27;;
34639;SDS011;22600;48.186;11.526;2022-11-15T06:31:24;34.50;;;8.93;;
34639;SDS011;22600;48.186;11.526;2022-11-15T06:33:49;26.92;;;8.45;;
34639;SDS011;22600;48.186;11.526;2022-11-15T06:36:15;31.20;;;7.93;;
34639;SDS011;22600;48.186;11.526;2022-11-15T06:38:42;27.10;;;7.95;;
34639;SDS011;22600;48.186;11.526;2022-11-15T06:41:09;29.15;;;8.02;;
34639;SDS011;22600;48.186;11.526;2022-11-15T06:43:35;26.15;;;7.43;;
34639;SDS011;22600;48.186;11.526;2022-11-15T06:46:02;20.90;;;7.53;;
34639;SDS011;22600;48.186;11.526;2022-11-15T06:48:28;20.27;;;6.97;;
34639;SDS011;22600;48.186;11.526;2022-11-15T06:50:56;20.95;;;7.03;;
34639;SDS011;22600;48.186;11.526;2022-11-15T06:53:22;26.10;;;7.50;;
34639;SDS011;22600;48.186;11.526;2022-11-15T06:55:48;21.88;;;7.22;;
34639;SDS011;22600;48.186;11.526;2022-11-15T06:58:14;19.50;;;6.82;;
34639;SDS011;22600;48.186;11.526;2022-11-15T07:00:40;20.67;;;7.53;;
34639;SDS011;22600;48.186;11.526;2022-11-15T07:03:06;17.10;;;6.63;;
34639;SDS011;22600;48.186;11.526;2022-11-15T07:05:32;19.67;;;7.00;;
34639;SDS011;22600;48.186;11.526;2022-11-15T07:07:58;20.83;;;7.60;;
34639;SDS011;22600;48.186;11.526;2022-11-15T07:10:24;17.48;;;7.43;;
34639;SDS011;22600;48.186;11.526;2022-11-15T07:12:51;20.33;;;7.20;;
34639;SDS011;22600;48.186;11.526;2022-11-15T07:15:18;19.83;;;6.93;;
34639;SDS011;22600;48.186;11.526;2022-11-15T07:17:45;23.42;;;7.30;;
34639;SDS011;22600;48.186;11.526;2022-11-15T07:20:10;16.70;;;7.50;;
34639;SDS011;22600;48.186;11.526;2022-11-15T07:22:38;20.27;;;7.53;;
34639;SDS011;22600;48.186;11.526;2022-11-15T07:25:04;19.88;;;7.53;;
34639;SDS011;22600;48.186;11.526;2022-11-15T07:27:30;15.73;;;7.07;;
34639;SDS011;22600;48.186;11.526;2022-11-15T07:29:56;17.48;;;7.00;;
34639;SDS011;22600;48.186;11.526;2022-11-15T07:32:21;16.65;;;7.43;;
34639;SDS011;22600;48.186;11.526;2022-11-15T07:34:47;17.45;;;7.40;;
34639;SDS011;22600;48.186;11.526;2022-11-15T07:37:12;20.27;;;7.93;;
34639;SDS011;22600;48.186;11.526;2022-11-15T07:39:38;15.30;;;6.68;;
34639;SDS011;22600;48.186;11.526;2022-11-15T07:42:03;17.65;;;7.57;;
34639;SDS011;22600;48.186;11.526;2022-11-15T07:44:47;15.73;;;7.38;;
34639;SDS011;22600;48.186;11.526;2022-11-15T07:47:13;14.07;;;7.25;;
34639;SDS011;22600;48.186;11.526;2022-11-15T07:49:39;15.45;;;7.07;;
34639;SDS011;22600;48.186;11.526;2022-11-15T07:52:04;15.82;;;7.22;;
34639;SDS011;22600;48.186;11.526;2022-11-15T07:54:30;14.27;;;7.18;;
34639;SDS011;22600;48.186;11.526;2022-11-15T07:56:56;18.70;;;7.43;;
34639;SDS011;22600;48.186;11.526;2022-11-15T07:59:21;15.70;;;7.15;;
34639;SDS011;22600;48.186;11.526;2022-11-15T08:01:47;16.42;;;6.90;;
34639;SDS011;22600;48.186;11.526;2022-11-15T08:04:13;16.13;;;6.88;;
34639;SDS011;22600;48.186;11.526;2022-11-15T08:06:38;15.82;;;7.50;;
34639;SDS011;22600;48.186;11.526;2022-11-15T08:09:04;18.80;;;7.00;;
34639;SDS011;22600;48.186;11.526;2022-11-15T08:11:29;12.68;;;6.25;;
34639;SDS011;22600;48.186;11.526;2022-11-15T08:13:55;13.98;;;6.97;;
34639;SDS011;22600;48.186;11.526;2022-11-15T08:16:21;15.52;;;7.07;;
34639;SDS011;22600;48.186;11.526;2022-11-15T08:18:46;13.32;;;7.28;;
34639;SDS011;22600;48.186;11.526;2022-11-15T08:21:14;15.00;;;6.75;;
34639;SDS011;22600;48.186;11.526;2022-11-15T08:23:43;16.17;;;7.47;;
34639;SDS011;22600;48.186;11.526;2022-11-15T08:26:09;13.75;;;7.03;;
34639;SDS011;22600;48.186;11.526;2022-11-15T08:28:35;17.65;;;7.70;;
34639;SDS011;22600;48.186;11.526;2022-11-15T08:31:00;12.65;;;6.78;;
34639;SDS011;22600;48.186;11.526;2022-11-15T08:33:27;15.35;;;7.07;;
34639;SDS011;22600;48.186;11.526;2022-11-15T08:35:55;14.18;;;6.72;;
34639;SDS011;22600;48.186;11.526;2022-11-15T08:38:22;14.02;;;6.55;;
34639;SDS011;22600;48.186;11.526;2022-11-15T08:40:48;13.95;;;6.75;;
34639;SDS011;22600;48.186;11.526;2022-11-15T08:43:15;14.25;;;6.45;;
34639;SDS011;22600;48.186;11.526;2022-11-15T08:45:40;17.73;;;7.15;;
34639;SDS011;22600;48.186;11.526;2022-11-15T08:48:06;13.82;;;6.85;;
34639;SDS011;22600;48.186;11.526;2022-11-15T08:50:31;13.52;;;6.35;;
34639;SDS011;22600;48.186;11.526;2022-11-15T08:52:57;13.65;;;6.38;;
34639;SDS011;22600;48.186;11.526;2022-11-15T08:55:28;15.65;;;6.68;;
34639;SDS011;22600;48.186;11.526;2022-11-15T08:57:56;15.65;;;6.28;;
34639;SDS011;22600;48.186;11.526;2022-11-15T09:00:22;16.75;;;6.22;;
34639;SDS011;22600;48.186;11.526;2022-11-15T09:02:48;13.43;;;6.32;;
34639;SDS011;22600;48.186;11.526;2022-11-15T09:05:13;12.57;;;6.35;;
34639;SDS011;22600;48.186;11.526;2022-11-15T09:07:40;12.50;;;6.40;;
34639;SDS011;22600;48.186;11.526;2022-11-15T09:10:06;13.98;;;6.63;;
34639;SDS011;22600;48.186;11.526;2022-11-15T09:12:32;14.90;;;6.00;;
34639;SDS011;22600;48.186;11.526;2022-11-15T09:14:57;12.23;;;6.32;;
34639;SDS011;22600;48.186;11.526;2022-11-15T09:17:23;13.05;;;6.65;;
34639;SDS011;22600;48.186;11.526;2022-11-15T09:19:48;12.45;;;6.70;;
34639;SDS011;22600;48.186;11.526;2022-11-15T09:22:14;11.73;;;6.07;;
34639;SDS011;22600;48.186;11.526;2022-11-15T09:24:39;10.75;;;5.70;;
34639;SDS011;22600;48.186;11.526;2022-11-15T09:27:06;13.00;;;6.20;;
34639;SDS011;22600;48.186;11.526;2022-11-15T09:29:31;13.07;;;5.90;;
34639;SDS011;22600;48.186;11.526;2022-11-15T09:31:57;13.93;;;6.07;;
34639;SDS011;22600;48.186;11.526;2022-11-15T09:34:22;11.13;;;6.40;;
34639;SDS011;22600;48.186;11.526;2022-11-15T09:36:48;10.88;;;6.25;;
34639;SDS011;22600;48.186;11.526;2022-11-15T09:39:15;12.20;;;6.50;;
34639;SDS011;22600;48.186;11.526;2022-11-15T09:41:48;12.07;;;6.25;;
34639;SDS011;22600;48.186;11.526;2022-11-15T09:44:26;10.68;;;5.93;;
34639;SDS011;22600;48.186;11.526;2022-11-15T09:49:55;12.13;;;6.70;;
34639;SDS011;22600;48.186;11.526;2022-11-15T09:52:23;10.98;;;5.70;;
34639;SDS011;22600;48.186;11.526;2022-11-15T09:54:50;11.68;;;6.50;;
34639;SDS011;22600;48.186;11.526;2022-11-15T09:57:37;11.40;;;6.15;;
34639;SDS011;22600;48.186;11.526;2022-11-15T10:05:27;11.00;;;6.22;;
34639;SDS011;22600;48.186;11.526;2022-11-15T10:10:39;9.95;;;6.00;;
34639;SDS011;22600;48.186;11.526;2022-11-15T10:13:22;11.02;;;5.85;;
34639;SDS011;22600;48.186;11.526;2022-11-15T10:15:51;9.85;;;5.43;;
34639;SDS011;22600;48.186;11.526;2022-11-15T10:21:15;10.88;;;5.97;;
34639;SDS011;22600;48.186;11.526;2022-11-15T10:23:43;13.73;;;6.45;;
34639;SDS011;22600;48.186;11.526;2022-11-15T10:26:11;12.00;;;5.72;;
34639;SDS011;22600;48.186;11.526;2022-11-15T10:28:39;12.57;;;6.43;;
34639;SDS011;22600;48.186;11.526;2022-11-15T10:31:14;12.38;;;6.20;;
34639;SDS011;22600;48.186;11.526;2022-11-15T10:33:47;11.57;;;5.53;;
34639;SDS011;22600;48.186;11.526;2022-11-15T10:41:23;9.02;;;5.43;;
34639;SDS011;22600;48.186;11.526;2022-11-15T10:44:07;10.27;;;5.72;;
34639;SDS011;22600;48.186;11.526;2022-11-15T10:46:37;9.77;;;5.50;;
34639;SDS011;22600;48.186;11.526;2022-11-15T10:51:44;10.95;;;6.07;;
34639;SDS011;22600;48.186;11.526;2022-11-15T10:57:11;9.93;;;5.32;;
34639;SDS011;22600;48.186;11.526;2022-11-15T10:59:43;10.23;;;5.65;;
34639;SDS011;22600;48.186;11.526;2022-11-15T11:05:26;9.27;;;5.45;;
34639;SDS011;22600;48.186;11.526;2022-11-15T11:08:01;9.38;;;5.70;;
34639;SDS011;22600;48.186;11.526;2022-11-15T11:10:27;8.70;;;5.32;;
34639;SDS011;22600;48.186;11.526;2022-11-15T11:12:54;8.77;;;4.88;;
34639;SDS011;22600;48.186;11.526;2022-11-15T11:15:19;9.63;;;5.30;;
34639;SDS011;22600;48.186;11.526;2022-11-15T11:18:07;10.95;;;4.97;;
34639;SDS011;22600;48.186;11.526;2022-11-15T11:20:41;10.32;;;5.10;;
34639;SDS011;22600;48.186;11.526;2022-11-15T11:42:26;10.00;;;5.63;;
34639;SDS011;22600;48.186;11.526;2022-11-15T11:45:15;10.25;;;5.88;;
34639;SDS011;22600;48.186;11.526;2022-11-15T11:47:47;9.35;;;5.28;;
34639;SDS011;22600;48.186;11.526;2022-11-15T11:50:41;9.20;;;5.20;;
34639;SDS011;22600;48.186;11.526;2022-11-15T11:53:26;10.85;;;5.57;;
34639;SDS011;22600;48.186;11.526;2022-11-15T11:55:57;8.65;;;5.00;;
34639;SDS011;22600;48.186;11.526;2022-11-15T11:58:33;8.52;;;4.97;;
34639;SDS011;22600;48.186;11.526;2022-11-15T12:06:29;9.13;;;5.13;;
34639;SDS011;22600;48.186;11.526;2022-11-15T12:14:12;8.50;;;5.00;;
34639;SDS011;22600;48.186;11.526;2022-11-15T12:17:02;8.10;;;5.15;;
34639;SDS011;22600;48.186;11.526;2022-11-15T12:19:28;7.68;;;4.88;;
34639;SDS011;22600;48.186;11.526;2022-11-15T12:25:25;7.72;;;4.78;;
34639;SDS011;22600;48.186;11.526;2022-11-15T12:27:51;8.13;;;4.85;;
34639;SDS011;22600;48.186;11.526;2022-11-15T12:30:44;8.63;;;5.10;;
34639;SDS011;22600;48.186;11.526;2022-11-15T12:35:58;7.90;;;4.82;;
34639;SDS011;22600;48.186;11.526;2022-11-15T12:41:33;8.07;;;4.85;;
34639;SDS011;22600;48.186;11.526;2022-11-15T12:44:01;7.65;;;4.55;;
34639;SDS011;22600;48.186;11.526;2022-11-15T12:49:00;8.00;;;4.80;;
34639;SDS011;22600;48.186;11.526;2022-11-15T12:52:09;9.27;;;4.45;;
34639;SDS011;22600;48.186;11.526;2022-11-15T13:02:27;8.18;;;5.18;;
34639;SDS011;22600;48.186;11.526;2022-11-15T13:23:11;7.18;;;4.53;;
34639;SDS011;22600;48.186;11.526;2022-11-15T13:28:32;7.95;;;4.30;;
34639;SDS011;22600;48.186;11.526;2022-11-15T13:31:23;10.20;;;4.72;;
34639;SDS011;22600;48.186;11.526;2022-11-15T13:33:52;14.55;;;6.68;;
34639;SDS011;22600;48.186;11.526;2022-11-15T13:36:24;17.05;;;6.30;;
34639;SDS011;22600;48.186;11.526;2022-11-15T13:39:02;16.83;;;7.00;;
34639;SDS011;22600;48.186;11.526;2022-11-15T13:41:44;21.02;;;8.57;;
34639;SDS011;22600;48.186;11.526;2022-11-15T13:44:18;15.57;;;6.05;;
34639;SDS011;22600;48.186;11.526;2022-11-15T13:49:33;14.85;;;5.45;;
34639;SDS011;22600;48.186;11.526;2022-11-15T13:51:59;13.57;;;4.70;;
34639;SDS011;22600;48.186;11.526;2022-11-15T13:54:33;11.88;;;4.60;;
34639;SDS011;22600;48.186;11.526;2022-11-15T13:59:36;8.98;;;4.78;;
34639;SDS011;22600;48.186;11.526;2022-11-15T14:02:13;9.10;;;4.53;;
34639;SDS011;22600;48.186;11.526;2022-11-15T14:04:54;10.10;;;5.18;;
34639;SDS011;22600;48.186;11.526;2022-11-15T14:07:41;10.85;;;5.40;;
34639;SDS011;22600;48.186;11.526;2022-11-15T14:12:54;13.88;;;5.80;;
34639;SDS011;22600;48.186;11.526;2022-11-15T14:15:37;10.25;;;4.72;;
34639;SDS011;22600;48.186;11.526;2022-11-15T14:18:04;10.63;;;5.57;;
34639;SDS011;22600;48.186;11.526;2022-11-15T14:25:54;9.25;;;5.00;;
34639;SDS011;22600;48.186;11.526;2022-11-15T14:30:50;12.23;;;5.45;;
34639;SDS011;22600;48.186;11.526;2022-11-15T14:35:53;9.95;;;4.80;;
34639;SDS011;22600;48.186;11.526;2022-11-15T14:38:22;11.23;;;4.72;;
34639;SDS011;22600;48.186;11.526;2022-11-15T14:40:51;10.05;;;4.72;;
34639;SDS011;22600;48.186;11.526;2022-11-15T14:43:17;12.40;;;5.13;;
34639;SDS011;22600;48.186;11.526;2022-11-15T14:45:42;11.40;;;5.00;;
34639;SDS011;22600;48.186;11.526;2022-11-15T14:48:08;10.00;;;4.53;;
34639;SDS011;22600;48.186;11.526;2022-11-15T14:50:34;8.82;;;4.95;;
34639;SDS011;22600;48.186;11.526;2022-11-15T14:53:01;9.75;;;4.43;;
34639;SDS011;22600;48.186;11.526;2022-11-15T14:55:28;10.25;;;4.60;;
34639;SDS011;22600;48.186;11.526;2022-11-15T14:58:00;9.05;;;4.28;;
34639;SDS011;22600;48.186;11.526;2022-11-15T15:00:32;9.25;;;4.60;;
34639;SDS011;22600;48.186;11.526;2022-11-15T15:02:59;6.10;;;4.00;;
34639;SDS011;22600;48.186;11.526;2022-11-15T15:05:35;8.13;;;4.75;;
34639;SDS011;22600;48.186;11.526;2022-11-15T15:08:05;9.10;;;4.50;;
34639;SDS011;22600;48.186;11.526;2022-11-15T15:10:39;9.70;;;4.00;;
34639;SDS011;22600;48.186;11.526;2022-11-15T15:13:25;7.93;;;4.22;;
34639;SDS011;22600;48.186;11.526;2022-11-15T15:15:51;7.82;;;4.25;;
34639;SDS011;22600;48.186;11.526;2022-11-15T15:18:17;6.35;;;4.07;;
34639;SDS011;22600;48.186;11.526;2022-11-15T15:20:44;6.80;;;4.00;;
34639;SDS011;22600;48.186;11.526;2022-11-15T15:23:15;6.97;;;4.38;;
34639;SDS011;22600;48.186;11.526;2022-11-15T15:25:42;6.65;;;4.00;;
34639;SDS011;22600;48.186;11.526;2022-11-15T15:28:10;8.75;;;4.18;;
34639;SDS011;22600;48.186;11.526;2022-11-15T15:30:36;6.53;;;3.97;;
34639;SDS011;22600;48.186;11.526;2022-11-15T15:33:01;6.55;;;3.92;;
34639;SDS011;22600;48.186;11.526;2022-11-15T15:35:29;6.70;;;3.75;;
34639;SDS011;22600;48.186;11.526;2022-11-15T15:37:56;7.80;;;3.80;;
34639;SDS011;22600;48.186;11.526;2022-11-15T15:40:23;5.95;;;3.80;;
34639;SDS011;22600;48.186;11.526;2022-11-15T15:42:50;7.35;;;3.92;;
34639;SDS011;22600;48.186;11.526;2022-11-15T15:45:16;5.85;;;3.97;;
34639;SDS011;22600;48.186;11.526;2022-11-15T15:47:43;5.32;;;3.42;;
34639;SDS011;22600;48.186;11.526;2022-11-15T15:50:28;7.43;;;4.18;;
34639;SDS011;22600;48.186;11.526;2022-11-15T15:52:57;6.50;;;4.15;;
34639;SDS011;22600;48.186;11.526;2022-11-15T15:55:24;7.72;;;4.13;;
34639;SDS011;22600;48.186;11.526;2022-11-15T15:57:50;7.07;;;4.15;;
34639;SDS011;22600;48.186;11.526;2022-11-15T16:00:16;11.57;;;4.28;;
34639;SDS011;22600;48.186;11.526;2022-11-15T16:02:43;9.05;;;4.47;;
34639;SDS011;22600;48.186;11.526;2022-11-15T16:05:09;10.73;;;4.63;;
34639;SDS011;22600;48.186;11.526;2022-11-15T16:07:35;9.25;;;4.45;;
34639;SDS011;22600;48.186;11.526;2022-11-15T16:10:03;9.38;;;3.90;;
34639;SDS011;22600;48.186;11.526;2022-11-15T16:12:41;5.95;;;3.67;;
34639;SDS011;22600;48.186;11.526;2022-11-15T16:15:07;5.93;;;3.70;;
34639;SDS011;22600;48.186;11.526;2022-11-15T16:17:34;5.82;;;3.83;;
34639;SDS011;22600;48.186;11.526;2022-11-15T16:20:03;10.93;;;3.93;;
34639;SDS011;22600;48.186;11.526;2022-11-15T16:22:29;8.63;;;3.80;;
34639;SDS011;22600;48.186;11.526;2022-11-15T16:24:55;7.25;;;3.58;;
34639;SDS011;22600;48.186;11.526;2022-11-15T16:27:21;9.75;;;4.20;;
34639;SDS011;22600;48.186;11.526;2022-11-15T16:29:48;8.18;;;3.92;;
34639;SDS011;22600;48.186;11.526;2022-11-15T16:32:14;6.88;;;3.80;;
34639;SDS011;22600;48.186;11.526;2022-11-15T16:34:40;10.55;;;4.32;;
34639;SDS011;22600;48.186;11.526;2022-11-15T16:37:08;20.73;;;6.45;;
34639;SDS011;22600;48.186;11.526;2022-11-15T16:39:46;9.55;;;4.18;;
34639;SDS011;22600;48.186;11.526;2022-11-15T16:42:11;13.55;;;4.10;;
34639;SDS011;22600;48.186;11.526;2022-11-15T16:44:37;9.13;;;4.22;;
34639;SDS011;22600;48.186;11.526;2022-11-15T16:47:02;7.60;;;3.92;;
34639;SDS011;22600;48.186;11.526;2022-11-15T16:49:28;18.50;;;8.68;;
34639;SDS011;22600;48.186;11.526;2022-11-15T16:51:53;17.10;;;5.82;;
34639;SDS011;22600;48.186;11.526;2022-11-15T16:54:19;10.85;;;4.93;;
34639;SDS011;22600;48.186;11.526;2022-11-15T16:56:45;9.95;;;4.22;;
34639;SDS011;22600;48.186;11.526;2022-11-15T16:59:14;6.38;;;3.55;;
34639;SDS011;22600;48.186;11.526;2022-11-15T17:01:41;8.13;;;4.05;;
34639;SDS011;22600;48.186;11.526;2022-11-15T17:04:16;48.38;;;24.70;;
34639;SDS011;22600;48.186;11.526;2022-11-15T17:06:45;20.83;;;10.15;;
34639;SDS011;22600;48.186;11.526;2022-11-15T17:09:21;25.00;;;11.02;;
34639;SDS011;22600;48.186;11.526;2022-11-15T17:11:50;20.27;;;10.15;;